createdAt,value
2023-03-05T00:00:51.468Z,100.00
2023-03-05T00:03:18.984Z,100.00
2023-03-05T00:05:45.690Z,100.00
2023-03-05T00:08:12.396Z,100.00
2023-03-05T00:10:39.169Z,100.00
2023-03-05T00:13:06.224Z,100.00
2023-03-05T00:15:32.927Z,100.00
2023-03-05T00:17:59.624Z,100.00
2023-03-05T00:20:26.334Z,100.00
2023-03-05T00:22:53.176Z,100.00
2023-03-05T00:25:20.018Z,100.00
2023-03-05T00:27:46.655Z,100.00
2023-03-05T00:30:13.763Z,100.00
2023-03-05T00:32:41.474Z,100.00
2023-03-05T00:35:08.913Z,100.00
2023-03-05T00:37:35.672Z,100.00
2023-03-05T00:40:04.041Z,100.00
2023-03-05T00:42:30.950Z,100.00
2023-03-05T00:44:57.672Z,100.00
2023-03-05T00:47:24.490Z,100.00
2023-03-05T00:49:51.479Z,100.00
2023-03-05T00:52:18.200Z,100.00
2023-03-05T00:54:45.455Z,100.00
2023-03-05T00:57:12.890Z,100.00
2023-03-05T00:59:39.563Z,100.00
2023-03-05T01:02:06.468Z,100.00
2023-03-05T01:04:33.962Z,100.00
2023-03-05T01:07:00.634Z,100.00
2023-03-05T01:09:27.441Z,100.00
2023-03-05T01:11:54.659Z,100.00
2023-03-05T01:14:21.827Z,100.00
2023-03-05T01:16:48.495Z,100.00
2023-03-05T01:19:16.186Z,100.00
2023-03-05T01:21:43.048Z,100.00
2023-03-05T01:24:09.873Z,100.00
2023-03-05T01:26:36.539Z,100.00
2023-03-05T01:29:04.430Z,100.00
2023-03-05T01:31:31.201Z,100.00
2023-03-05T01:34:00.247Z,100.00
2023-03-05T01:36:26.919Z,100.00
2023-03-05T01:38:53.747Z,100.00
2023-03-05T01:41:21.376Z,100.00
2023-03-05T01:43:49.345Z,100.00
2023-03-05T01:46:28.294Z,100.00
2023-03-05T01:49:02.813Z,100.00
2023-03-05T01:51:35.674Z,100.00
2023-03-05T01:54:03.471Z,100.00
2023-03-05T01:56:31.126Z,100.00
2023-03-05T01:59:03.748Z,100.00
2023-03-05T02:01:34.038Z,100.00
2023-03-05T02:04:01.608Z,100.00
2023-03-05T02:06:29.122Z,100.00
2023-03-05T02:08:56.223Z,100.00
2023-03-05T02:11:23.274Z,100.00
2023-03-05T02:13:50.483Z,100.00
2023-03-05T02:16:17.303Z,100.00
2023-03-05T02:18:44.278Z,100.00
2023-03-05T02:21:11.427Z,100.00
2023-03-05T02:23:39.252Z,100.00
2023-03-05T02:26:09.374Z,100.00
2023-03-05T02:28:37.611Z,100.00
2023-03-05T02:31:11.665Z,100.00
2023-03-05T02:33:38.887Z,100.00
2023-03-05T02:36:06.223Z,100.00
2023-03-05T02:38:33.405Z,100.00
2023-03-05T02:41:00.155Z,100.00
2023-03-05T02:43:26.921Z,100.00
2023-03-05T02:45:53.631Z,100.00
2023-03-05T02:48:20.387Z,100.00
2023-03-05T02:50:48.176Z,100.00
2023-03-05T02:53:14.942Z,100.00
2023-03-05T02:55:41.826Z,100.00
2023-03-05T02:58:08.477Z,100.00
2023-03-05T03:00:35.275Z,100.00
2023-03-05T03:03:02.118Z,100.00
2023-03-05T03:05:28.785Z,100.00
2023-03-05T03:07:55.921Z,100.00
2023-03-05T03:10:22.680Z,100.00
2023-03-05T03:12:49.400Z,100.00
2023-03-05T03:15:17.397Z,100.00
2023-03-05T03:17:44.668Z,100.00
2023-03-05T03:20:14.171Z,100.00
2023-03-05T03:22:42.163Z,100.00
2023-03-05T03:25:09.522Z,100.00
2023-03-05T03:27:36.485Z,100.00
2023-03-05T03:30:04.976Z,100.00
2023-03-05T03:32:35.184Z,100.00
2023-03-05T03:35:02.179Z,100.00
2023-03-05T03:37:31.158Z,100.00
2023-03-05T03:39:58.135Z,100.00
2023-03-05T03:42:25.515Z,100.00
2023-03-05T03:44:52.641Z,100.00
2023-03-05T03:47:19.714Z,100.00
2023-03-05T03:49:46.563Z,100.00
2023-03-05T03:52:13.504Z,100.00
2023-03-05T03:54:41.283Z,100.00
2023-03-05T03:57:08.876Z,100.00
2023-03-05T03:59:35.524Z,100.00
2023-03-05T04:02:02.234Z,100.00
2023-03-05T04:04:30.417Z,100.00
2023-03-05T04:06:57.581Z,100.00
2023-03-05T04:09:24.511Z,100.00
2023-03-05T04:11:51.197Z,100.00
2023-03-05T04:14:17.952Z,100.00
2023-03-05T04:16:44.835Z,100.00
2023-03-05T04:19:11.622Z,100.00
2023-03-05T04:21:38.287Z,100.00
2023-03-05T04:24:05.405Z,100.00
2023-03-05T04:26:32.195Z,100.00
2023-03-05T04:28:58.848Z,100.00
2023-03-05T04:31:26.536Z,100.00
2023-03-05T04:33:53.337Z,100.00
2023-03-05T04:36:20.414Z,100.00
2023-03-05T04:38:47.233Z,100.00
2023-03-05T04:41:14.209Z,100.00
2023-03-05T04:43:40.905Z,100.00
2023-03-05T04:46:07.932Z,100.00
2023-03-05T04:48:34.623Z,100.00
2023-03-05T04:51:01.289Z,100.00
2023-03-05T04:53:28.137Z,100.00
2023-03-05T04:55:55.810Z,100.00
2023-03-05T04:58:23.883Z,100.00
2023-03-05T05:00:50.605Z,100.00
2023-03-05T05:03:17.379Z,100.00
2023-03-05T05:05:44.052Z,100.00
2023-03-05T05:08:12.656Z,100.00
2023-03-05T05:10:40.235Z,100.00
2023-03-05T05:13:07.264Z,100.00
2023-03-05T05:15:34.087Z,100.00
2023-03-05T05:18:01.532Z,100.00
2023-03-05T05:20:28.251Z,100.00
2023-03-05T05:22:54.966Z,100.00
2023-03-05T05:25:22.187Z,100.00
2023-03-05T05:27:49.663Z,100.00
2023-03-05T05:30:16.440Z,100.00
2023-03-05T05:32:43.219Z,100.00
2023-03-05T05:35:10.663Z,100.00
2023-03-05T05:37:37.333Z,100.00
2023-03-05T05:40:05.822Z,100.00
2023-03-05T05:42:33.172Z,100.00
2023-03-05T05:45:00.256Z,100.00
2023-03-05T05:47:26.992Z,100.00
2023-03-05T05:49:53.648Z,100.00
2023-03-05T05:52:21.090Z,100.00
2023-03-05T05:54:48.551Z,100.00
2023-03-05T05:57:15.329Z,100.00
2023-03-05T05:59:42.115Z,100.00
2023-03-05T06:02:09.368Z,100.00
2023-03-05T06:04:36.168Z,100.00
2023-03-05T06:07:03.743Z,100.00
2023-03-05T06:09:31.391Z,100.00
2023-03-05T06:11:58.055Z,100.00
2023-03-05T06:14:24.890Z,100.00
2023-03-05T06:16:52.159Z,100.00
2023-03-05T06:19:18.948Z,100.00
2023-03-05T06:21:45.671Z,100.00
2023-03-05T06:24:13.095Z,100.00
2023-03-05T06:26:39.949Z,100.00
2023-03-05T06:29:06.693Z,100.00
2023-03-05T06:31:36.165Z,100.00
2023-03-05T06:34:04.998Z,100.00
2023-03-05T06:36:33.447Z,100.00
2023-03-05T06:39:00.115Z,100.00
2023-03-05T06:41:29.444Z,100.00
2023-03-05T06:43:56.802Z,100.00
2023-03-05T06:46:26.661Z,100.00
2023-03-05T06:48:56.101Z,100.00
2023-03-05T06:51:26.066Z,100.00
2023-03-05T06:53:54.516Z,100.00
2023-03-05T06:56:21.830Z,100.00
2023-03-05T06:58:51.391Z,100.00
2023-03-05T07:01:19.343Z,100.00
2023-03-05T07:03:49.916Z,100.00
2023-03-05T07:06:16.703Z,100.00
2023-03-05T07:08:44.995Z,100.00
2023-03-05T07:11:13.692Z,100.00
2023-03-05T07:13:40.857Z,100.00
2023-03-05T07:16:14.961Z,100.00
2023-03-05T07:18:41.722Z,100.00
2023-03-05T07:21:10.124Z,100.00
2023-03-05T07:23:37.956Z,100.00
2023-03-05T07:26:07.475Z,100.00
2023-03-05T07:28:35.320Z,100.00
2023-03-05T07:31:07.873Z,100.00
2023-03-05T07:33:37.754Z,100.00
2023-03-05T07:36:07.369Z,100.00
2023-03-05T07:38:34.418Z,100.00
2023-03-05T07:41:09.523Z,100.00
2023-03-05T07:43:36.333Z,100.00
2023-03-05T07:46:08.952Z,100.00
2023-03-05T07:48:36.586Z,100.00
2023-03-05T07:51:15.934Z,100.00
2023-03-05T07:53:43.383Z,100.00
2023-03-05T13:57:04.506Z,73.77
2023-03-05T13:59:34.048Z,75.43
2023-03-05T14:02:03.923Z,72.38
2023-03-05T14:04:35.849Z,74.18
2023-03-05T14:07:31.757Z,75.63
2023-03-05T14:09:59.962Z,77.29
2023-03-05T14:12:36.105Z,76.42
2023-03-05T14:15:07.411Z,75.75
2023-03-05T14:17:42.508Z,75.59
2023-03-05T14:20:31.099Z,77.15
2023-03-05T14:23:00.175Z,78.76
2023-03-05T14:25:40.767Z,80.08
2023-03-05T14:28:26.335Z,78.42
2023-03-05T14:30:56.169Z,77.40
2023-03-05T14:33:28.103Z,73.29
2023-03-05T14:35:56.007Z,71.75
2023-03-05T14:38:26.398Z,73.14
2023-03-05T14:40:53.854Z,69.20
2023-03-05T14:43:20.735Z,68.33
2023-03-05T14:45:48.101Z,69.73
2023-03-05T14:48:19.076Z,69.98
2023-03-05T14:50:56.986Z,70.20
2023-03-05T14:53:29.769Z,69.92
2023-03-05T14:55:57.355Z,70.41
2023-03-05T14:58:29.623Z,71.35
2023-03-05T15:00:57.107Z,71.54
2023-03-05T15:03:25.017Z,71.68
2023-03-05T15:05:54.603Z,71.26
2023-03-05T15:08:25.659Z,71.36
2023-03-05T15:10:52.948Z,70.49
2023-03-05T15:13:19.828Z,70.65
2023-03-05T15:15:48.133Z,69.78
2023-03-05T15:18:18.690Z,70.09
2023-03-05T15:20:48.960Z,71.13
2023-03-05T15:23:16.273Z,71.80
2023-03-05T15:25:43.369Z,73.39
2023-03-05T15:28:10.184Z,75.12
2023-03-05T15:30:39.771Z,72.98
2023-03-05T15:33:13.088Z,72.72
2023-03-05T15:35:41.174Z,71.73
2023-03-05T15:38:08.362Z,72.43
2023-03-05T15:40:35.150Z,72.28
2023-03-05T15:43:01.865Z,73.21
2023-03-05T15:45:31.396Z,72.66
2023-03-05T15:47:58.455Z,72.62
2023-03-05T15:50:25.244Z,72.19
2023-03-05T15:52:52.291Z,71.61
2023-03-05T15:55:19.057Z,72.02
2023-03-05T15:57:48.218Z,72.02
2023-03-05T16:00:17.644Z,71.64
2023-03-05T16:02:44.480Z,72.21
2023-03-05T16:05:11.361Z,71.16
2023-03-05T16:07:42.139Z,70.45
2023-03-05T16:10:13.797Z,70.39
2023-03-05T16:12:43.208Z,71.12
2023-03-05T16:15:17.429Z,71.15
2023-03-05T16:17:47.493Z,71.60
2023-03-05T16:20:15.346Z,71.34
2023-03-05T16:22:42.287Z,72.27
2023-03-05T16:25:09.344Z,73.64
2023-03-05T16:27:36.790Z,75.44
2023-03-05T16:30:05.091Z,74.10
2023-03-05T16:32:31.834Z,74.58
2023-03-05T16:34:58.732Z,74.27
2023-03-05T16:37:26.189Z,76.10
2023-03-05T16:39:52.905Z,78.51
2023-03-05T16:42:19.605Z,80.40
2023-03-05T16:44:47.675Z,81.14
2023-03-05T16:47:15.392Z,83.33
2023-03-05T16:49:43.498Z,86.95
2023-03-05T16:52:18.629Z,88.13
2023-03-05T16:54:46.908Z,89.24
2023-03-05T16:57:14.072Z,89.78
2023-03-05T16:59:41.078Z,90.06
2023-03-05T17:02:08.135Z,92.66
2023-03-05T17:04:35.465Z,96.05
2023-03-05T17:07:04.181Z,100.00
2023-03-05T17:09:31.029Z,100.00
2023-03-05T17:11:57.878Z,100.00
2023-03-05T17:14:24.974Z,94.65
2023-03-05T17:16:52.013Z,87.48
2023-03-05T17:19:19.043Z,83.06
2023-03-05T17:21:46.045Z,80.63
2023-03-05T17:24:12.862Z,80.31
2023-03-05T17:26:39.945Z,79.41
2023-03-05T17:29:07.620Z,78.32
2023-03-05T17:31:34.631Z,77.36
2023-03-05T17:34:01.791Z,78.26
2023-03-05T17:36:28.430Z,78.96
2023-03-05T17:38:55.220Z,78.25
2023-03-05T17:41:22.727Z,77.77
2023-03-05T17:43:50.901Z,76.88
2023-03-05T17:46:17.796Z,75.50
2023-03-05T17:48:44.589Z,75.88
2023-03-05T17:51:13.349Z,75.56
2023-03-05T17:53:40.825Z,75.03
2023-03-05T17:56:12.913Z,76.18
2023-03-05T17:58:40.567Z,75.40
2023-03-05T18:01:08.736Z,75.48
2023-03-05T18:03:36.693Z,75.13
2023-03-05T18:06:05.106Z,75.93
2023-03-05T18:08:32.096Z,76.59
2023-03-05T18:10:58.955Z,76.25
2023-03-05T18:13:25.635Z,75.67
2023-03-05T18:15:52.476Z,75.31
2023-03-05T18:18:19.356Z,75.13
2023-03-05T18:20:46.256Z,75.78
2023-03-05T18:23:13.297Z,74.54
2023-03-05T18:25:40.610Z,73.53
2023-03-05T18:28:10.428Z,73.88
2023-03-05T18:30:37.848Z,74.20
2023-03-05T18:33:05.114Z,74.20
2023-03-05T18:35:33.728Z,74.35
2023-03-05T18:38:01.198Z,73.87
2023-03-05T18:40:30.312Z,74.72
2023-03-05T18:42:59.857Z,75.90
2023-03-05T18:45:26.685Z,76.58
2023-03-05T18:47:54.509Z,76.18
2023-03-05T18:50:23.602Z,76.34
2023-03-05T18:52:50.532Z,77.45
2023-03-05T18:55:19.250Z,76.56
2023-03-05T18:57:46.502Z,77.56
2023-03-05T19:00:16.150Z,78.53
2023-03-05T19:02:43.606Z,79.63
2023-03-05T19:05:11.224Z,82.07
2023-03-05T19:07:38.620Z,83.02
2023-03-05T19:10:07.819Z,85.75
2023-03-05T19:13:15.416Z,88.17
2023-03-05T19:15:42.703Z,89.54
2023-03-05T19:18:09.864Z,92.48
2023-03-05T19:20:36.916Z,96.39
2023-03-05T19:23:03.936Z,100.00
2023-03-05T19:25:30.813Z,100.00
2023-03-05T19:27:57.489Z,100.00
2023-03-05T19:30:24.276Z,100.00
2023-03-05T19:32:52.682Z,100.00
2023-03-05T19:35:19.905Z,100.00
2023-03-05T19:37:46.801Z,100.00
2023-03-05T19:40:15.273Z,100.00
2023-03-05T19:42:42.014Z,100.00
2023-03-05T19:45:09.860Z,100.00
2023-03-05T19:47:36.898Z,99.95
2023-03-05T19:50:06.202Z,98.83
2023-03-05T19:52:32.918Z,98.95
2023-03-05T19:55:00.133Z,100.00
2023-03-05T19:57:26.896Z,97.48
2023-03-05T19:59:53.981Z,98.07
2023-03-05T20:02:22.034Z,97.25
2023-03-05T20:04:49.691Z,97.11
2023-03-05T20:07:16.825Z,95.78
2023-03-05T20:09:43.695Z,97.49
2023-03-05T20:12:11.014Z,96.61
2023-03-05T20:14:38.192Z,95.84
2023-03-05T20:17:04.942Z,94.64
2023-03-05T20:19:31.811Z,93.00
2023-03-05T20:21:58.527Z,90.54
2023-03-05T20:24:25.241Z,87.95
2023-03-05T20:26:51.949Z,85.48
2023-03-05T20:29:18.941Z,84.75
2023-03-05T20:31:46.198Z,82.72
2023-03-05T20:34:15.993Z,84.18
2023-03-05T20:36:43.038Z,83.62
2023-03-05T20:39:10.305Z,82.73
2023-03-05T20:41:39.240Z,84.80
2023-03-05T20:44:07.864Z,85.73
2023-03-05T20:46:53.305Z,87.92
2023-03-05T20:49:20.502Z,86.82
2023-03-05T20:51:50.177Z,87.10
2023-03-05T20:54:17.311Z,88.72
2023-03-05T20:56:44.305Z,88.70
2023-03-05T20:59:11.267Z,87.43
2023-03-05T21:01:40.412Z,85.57
2023-03-05T21:04:08.460Z,87.57
2023-03-05T21:06:36.046Z,85.23
2023-03-05T21:09:03.478Z,83.38
2023-03-05T21:11:30.153Z,81.26
2023-03-05T21:13:57.136Z,82.13
2023-03-05T21:16:27.302Z,83.70
2023-03-05T21:18:56.044Z,85.64
2023-03-05T21:21:23.681Z,87.50
2023-03-05T21:23:50.580Z,86.63
2023-03-05T21:26:18.071Z,86.51
2023-03-05T21:28:44.773Z,84.52
2023-03-05T21:31:17.563Z,83.90
2023-03-05T21:33:44.709Z,84.90
2023-03-05T21:36:11.393Z,85.72
2023-03-05T21:38:38.073Z,85.68
2023-03-05T21:41:05.536Z,82.61
2023-03-05T21:43:33.532Z,82.05
2023-03-05T21:46:03.221Z,80.71
2023-03-05T21:48:30.477Z,81.95
2023-03-05T21:50:57.456Z,82.66
2023-03-05T21:53:24.704Z,83.33
2023-03-05T21:56:26.433Z,81.94
2023-03-05T21:58:54.054Z,83.71
2023-03-05T22:01:22.042Z,85.15
2023-03-05T22:03:50.142Z,84.03
2023-03-05T22:06:18.786Z,82.17
2023-03-05T22:08:45.951Z,79.99
2023-03-05T22:11:14.662Z,81.51
2023-03-05T22:13:42.540Z,83.31
2023-03-05T22:16:10.186Z,85.74
2023-03-05T22:18:37.493Z,84.15
2023-03-05T22:21:05.035Z,85.40
2023-03-05T22:23:34.583Z,87.23
2023-03-05T22:26:04.690Z,84.14
2023-03-05T22:28:32.860Z,83.62
2023-03-05T22:31:00.202Z,84.71
2023-03-05T22:33:27.596Z,84.23
2023-03-05T22:35:54.547Z,85.03
2023-03-05T22:38:21.982Z,87.27
2023-03-05T22:40:50.111Z,88.32
2023-03-05T22:43:18.994Z,87.80
2023-03-05T22:45:46.443Z,89.30
2023-03-05T22:48:13.775Z,87.85
2023-03-05T22:50:44.039Z,88.69
2023-03-05T22:53:12.177Z,88.82
2023-03-05T22:55:43.308Z,88.81
2023-03-05T22:58:10.356Z,89.74
2023-03-05T23:00:37.945Z,90.65
2023-03-05T23:03:06.556Z,90.74
2023-03-05T23:05:34.809Z,88.43
2023-03-05T23:08:01.985Z,88.05
2023-03-05T23:10:29.611Z,86.88
2023-03-05T23:12:59.000Z,86.18
2023-03-05T23:15:29.024Z,86.26
2023-03-05T23:17:56.618Z,88.08
2023-03-05T23:20:27.261Z,88.45
2023-03-05T23:22:56.377Z,88.94
2023-03-05T23:25:25.957Z,89.80
2023-03-05T23:27:52.962Z,89.19
2023-03-05T23:30:30.284Z,87.15
2023-03-05T23:33:16.510Z,88.43
2023-03-05T23:35:52.398Z,89.76
2023-03-05T23:38:19.272Z,90.15
2023-03-05T23:40:48.464Z,86.68
2023-03-05T23:43:16.598Z,85.47
2023-03-05T23:45:45.123Z,86.16
2023-03-05T23:48:12.335Z,82.76
2023-03-05T23:50:41.485Z,83.27
2023-03-05T23:53:10.615Z,86.60
2023-03-05T23:55:42.727Z,86.52
2023-03-05T23:58:09.726Z,89.66
